岡山グライダークラブ活動状況掲示板あなたは無料カウンター人目の訪問者です

岡山グライダークラブ
岡山市浦安南町639-1 岡南飛行場
 使用機:シャイベ式 SF25C型 ファルケ   JA2330
      ヴァレンティン式17E型 タイフーン  JA2342
 練習日:毎日曜日  クラブルーム:電話 086-265-1810
この掲示板は岡山グライダークラブの活動状況をお知らせする掲示板です。
!!!この掲示板は投稿規制をしています。!!!
クラブ関連各種情報は 岡山グライダークラブクラブルーム      を       .
  ブリーフイング情報は  岡山グライダークラブブリーフィングルーム  をご覧下さい。 .
※写真はクリックすると拡大して見ることが出来ます。
岡南飛行場へのアクセス等は 岡南飛行場管理事務所 をご覧ください。
クラブの ホームページ ができました。

 
07月26日
by OGC at 2020/7/26(日) 20:24:40 No.20200726200723  削除コメント
1024 x 768 x 61,835バイト
No.1

07月26日
本日の参加者
  会員      15名
  その他      0名


@本日のイメージ画像






METAR
RJBK 260000Z 08005KT 10KM FEW035CU SCT045CU BKN150AC 26/24 Q1010 A2987
RJOB 260000Z 07005KT 5000 BR BCFG FEW000 SCT006 BKN070 24/22 Q1012
RJOT 260000Z 10003KT 050V120 9999 FEW020 SCT080 BKN150 25/22 Q1012
RJOA 260000Z 09003KT 040V120 7000 -SHRA PRFG FEW000 SCT035 BKN060 22/21 Q1012
TAF
RJOB 252307Z 2600/2706 10006KT 8000 -SHRA FEW003 SCT010 BKN020
     TEMPO 2600/2605 4000 SHRA BR BCFG FEW000 SCT005 BKN008
     TEMPO 2615/2621 4000 -SHRA BR BCFG FEW000 BKN008 BKN015
RJOT 252310Z 2600/2706 08004KT 6000 -SHRA FEW003 SCT008 BKN020
     TEMPO 2600/2603 4000 -SHRA BR FEW003 BKN008 BKN015
     TEMPO 2603/2609 3000 SHRA BR FEW002 SCT006 BKN008
     TEMPO 2609/2618 4000 -SHRA BR FEW003 BKN008 BKN015
RJOA 252308Z 2600/2706 12005KT 6000 -SHRA FEW008 SCT015 BKN030
     TEMPO 2600/2609 2000 SHRA BR BCFG FEW000 BKN008 BKN015
     BECMG 2700/2703 20006KT

本日は、さすが「晴れの岡南飛行場」、午前中、雨に降られず4フライトできました。
午後からは、耐空検査前の整備が始まりました。みんな、要領が分かってきて手分けしながら
進められたので、整備も早く終わりそうです。


解散    14:00

1番機  10:20離陸 撤収機  12:30着陸 

SF25C JA2330 ファルケ     04Flt.1h25hmin  
17E   JA2342 タイフーン    00Flt.0h00min  
合計                    04Flt.1h25min

    << 戻る || ホームページ || 最新の掲示板へ